sensor_id;sensor_type;location;lat;lon;timestamp;pressure;altitude;pressure_sealevel;temperature
12409;BMP180;6268;48.188;17.134;2022-08-26T00:01:52;49644.88;;;-134.68
12409;BMP180;6268;48.188;17.134;2022-08-26T00:04:22;49648.78;;;-134.68
12409;BMP180;6268;48.188;17.134;2022-08-26T00:06:53;49646.84;;;-134.68
12409;BMP180;6268;48.188;17.134;2022-08-26T00:09:23;49644.88;;;-134.68
12409;BMP180;6268;48.188;17.134;2022-08-26T00:11:53;49646.84;;;-134.68
12409;BMP180;6268;48.188;17.134;2022-08-26T00:14:23;49648.78;;;-134.68
12409;BMP180;6268;48.188;17.134;2022-08-26T00:16:57;49644.88;;;-134.68
12409;BMP180;6268;48.188;17.134;2022-08-26T00:19:26;49646.84;;;-134.68
12409;BMP180;6268;48.188;17.134;2022-08-26T00:21:55;49644.88;;;-134.68
12409;BMP180;6268;48.188;17.134;2022-08-26T00:24:24;49646.84;;;-134.68
12409;BMP180;6268;48.188;17.134;2022-08-26T00:26:52;49646.84;;;-134.68
12409;BMP180;6268;48.188;17.134;2022-08-26T00:29:22;49646.84;;;-134.68
12409;BMP180;6268;48.188;17.134;2022-08-26T00:31:51;49644.88;;;-134.68
12409;BMP180;6268;48.188;17.134;2022-08-26T00:34:20;49644.88;;;-134.68
12409;BMP180;6268;48.188;17.134;2022-08-26T00:36:49;49646.84;;;-134.68
12409;BMP180;6268;48.188;17.134;2022-08-26T00:39:18;49644.88;;;-134.68
12409;BMP180;6268;48.188;17.134;2022-08-26T00:41:47;49642.94;;;-134.68
12409;BMP180;6268;48.188;17.134;2022-08-26T00:44:17;49644.88;;;-134.68
12409;BMP180;6268;48.188;17.134;2022-08-26T00:46:52;49644.88;;;-134.68
12409;BMP180;6268;48.188;17.134;2022-08-26T00:49:30;49648.78;;;-134.68
12409;BMP180;6268;48.188;17.134;2022-08-26T00:52:04;49646.84;;;-134.68
12409;BMP180;6268;48.188;17.134;2022-08-26T00:54:41;49646.84;;;-134.68
12409;BMP180;6268;48.188;17.134;2022-08-26T00:57:16;49644.88;;;-134.68
12409;BMP180;6268;48.188;17.134;2022-08-26T00:59:53;49644.88;;;-134.68
12409;BMP180;6268;48.188;17.134;2022-08-26T01:02:24;49644.88;;;-134.68
12409;BMP180;6268;48.188;17.134;2022-08-26T01:05:03;49644.88;;;-134.68
12409;BMP180;6268;48.188;17.134;2022-08-26T01:07:32;49646.84;;;-134.68
12409;BMP180;6268;48.188;17.134;2022-08-26T01:10:08;49646.84;;;-134.68
12409;BMP180;6268;48.188;17.134;2022-08-26T01:12:42;49644.88;;;-134.68
12409;BMP180;6268;48.188;17.134;2022-08-26T01:15:17;49644.88;;;-134.68
12409;BMP180;6268;48.188;17.134;2022-08-26T01:17:49;49642.94;;;-134.68
12409;BMP180;6268;48.188;17.134;2022-08-26T01:20:28;49644.88;;;-134.68
12409;BMP180;6268;48.188;17.134;2022-08-26T01:23:03;49644.88;;;-134.68
12409;BMP180;6268;48.188;17.134;2022-08-26T01:25:41;49646.84;;;-134.68
12409;BMP180;6268;48.188;17.134;2022-08-26T01:28:20;49642.94;;;-134.68
12409;BMP180;6268;48.188;17.134;2022-08-26T01:30:51;49644.88;;;-134.68
12409;BMP180;6268;48.188;17.134;2022-08-26T01:33:27;49646.84;;;-134.68
12409;BMP180;6268;48.188;17.134;2022-08-26T01:36:08;49646.84;;;-134.68
12409;BMP180;6268;48.188;17.134;2022-08-26T01:38:38;49642.94;;;-134.68
12409;BMP180;6268;48.188;17.134;2022-08-26T01:41:10;49644.88;;;-134.68
12409;BMP180;6268;48.188;17.134;2022-08-26T01:43:50;49644.88;;;-134.68
12409;BMP180;6268;48.188;17.134;2022-08-26T01:46:22;49646.84;;;-134.68
12409;BMP180;6268;48.188;17.134;2022-08-26T01:48:56;49644.88;;;-134.68
12409;BMP180;6268;48.188;17.134;2022-08-26T01:51:27;49646.84;;;-134.68
12409;BMP180;6268;48.188;17.134;2022-08-26T01:53:57;49646.84;;;-134.68
12409;BMP180;6268;48.188;17.134;2022-08-26T01:56:29;49646.84;;;-134.68
12409;BMP180;6268;48.188;17.134;2022-08-26T01:59:07;49644.88;;;-134.68
12409;BMP180;6268;48.188;17.134;2022-08-26T02:01:37;49642.94;;;-134.68
12409;BMP180;6268;48.188;17.134;2022-08-26T02:04:16;49642.94;;;-134.68
12409;BMP180;6268;48.188;17.134;2022-08-26T02:06:47;49646.84;;;-134.68
12409;BMP180;6268;48.188;17.134;2022-08-26T02:09:19;49646.84;;;-134.68
12409;BMP180;6268;48.188;17.134;2022-08-26T02:11:49;49646.84;;;-134.68
12409;BMP180;6268;48.188;17.134;2022-08-26T02:14:21;49646.84;;;-134.68
12409;BMP180;6268;48.188;17.134;2022-08-26T02:16:53;49646.84;;;-134.68
12409;BMP180;6268;48.188;17.134;2022-08-26T02:19:28;49642.94;;;-134.68
12409;BMP180;6268;48.188;17.134;2022-08-26T02:22:03;49646.84;;;-134.68
12409;BMP180;6268;48.188;17.134;2022-08-26T02:24:48;49644.88;;;-134.68
12409;BMP180;6268;48.188;17.134;2022-08-26T02:27:25;49646.84;;;-134.68
12409;BMP180;6268;48.188;17.134;2022-08-26T02:30:07;49644.88;;;-134.68
12409;BMP180;6268;48.188;17.134;2022-08-26T02:32:37;49642.94;;;-134.68
12409;BMP180;6268;48.188;17.134;2022-08-26T02:35:10;49644.88;;;-134.68
12409;BMP180;6268;48.188;17.134;2022-08-26T02:37:44;49646.84;;;-134.68
12409;BMP180;6268;48.188;17.134;2022-08-26T02:40:21;49644.88;;;-134.68
12409;BMP180;6268;48.188;17.134;2022-08-26T02:42:51;49642.94;;;-134.68
12409;BMP180;6268;48.188;17.134;2022-08-26T02:45:23;49646.84;;;-134.68
12409;BMP180;6268;48.188;17.134;2022-08-26T02:47:53;49644.88;;;-134.68
12409;BMP180;6268;48.188;17.134;2022-08-26T02:50:26;49646.84;;;-134.68
12409;BMP180;6268;48.188;17.134;2022-08-26T02:52:55;49644.88;;;-134.68
12409;BMP180;6268;48.188;17.134;2022-08-26T02:55:25;49646.84;;;-134.68
12409;BMP180;6268;48.188;17.134;2022-08-26T02:57:54;49644.88;;;-134.68
12409;BMP180;6268;48.188;17.134;2022-08-26T03:00:24;49642.94;;;-134.68
12409;BMP180;6268;48.188;17.134;2022-08-26T03:02:53;49642.94;;;-134.68
12409;BMP180;6268;48.188;17.134;2022-08-26T03:05:23;49642.94;;;-134.68
12409;BMP180;6268;48.188;17.134;2022-08-26T03:07:51;49644.88;;;-134.68
12409;BMP180;6268;48.188;17.134;2022-08-26T03:10:20;49648.78;;;-134.68
12409;BMP180;6268;48.188;17.134;2022-08-26T03:12:53;49642.94;;;-134.68
12409;BMP180;6268;48.188;17.134;2022-08-26T03:15:22;49646.84;;;-134.68
12409;BMP180;6268;48.188;17.134;2022-08-26T03:17:51;49644.88;;;-134.68
12409;BMP180;6268;48.188;17.134;2022-08-26T03:20:20;49646.84;;;-134.68
12409;BMP180;6268;48.188;17.134;2022-08-26T03:22:50;49644.88;;;-134.68
12409;BMP180;6268;48.188;17.134;2022-08-26T03:25:22;49646.84;;;-134.68
12409;BMP180;6268;48.188;17.134;2022-08-26T03:27:53;49644.88;;;-134.68
12409;BMP180;6268;48.188;17.134;2022-08-26T03:30:25;49644.88;;;-134.68
12409;BMP180;6268;48.188;17.134;2022-08-26T03:33:12;49646.84;;;-134.68
12409;BMP180;6268;48.188;17.134;2022-08-26T03:35:44;49648.78;;;-134.68
12409;BMP180;6268;48.188;17.134;2022-08-26T03:38:17;49646.84;;;-134.68
12409;BMP180;6268;48.188;17.134;2022-08-26T03:40:46;49648.78;;;-134.68
12409;BMP180;6268;48.188;17.134;2022-08-26T03:43:18;49644.88;;;-134.68
12409;BMP180;6268;48.188;17.134;2022-08-26T03:45:48;49644.88;;;-134.68
12409;BMP180;6268;48.188;17.134;2022-08-26T03:48:18;49646.84;;;-134.68
12409;BMP180;6268;48.188;17.134;2022-08-26T03:50:49;49646.84;;;-134.68
12409;BMP180;6268;48.188;17.134;2022-08-26T03:53:19;49642.94;;;-134.68
12409;BMP180;6268;48.188;17.134;2022-08-26T03:55:48;49644.88;;;-134.68
12409;BMP180;6268;48.188;17.134;2022-08-26T03:58:20;49646.84;;;-134.68
12409;BMP180;6268;48.188;17.134;2022-08-26T04:00:50;49644.88;;;-134.68
12409;BMP180;6268;48.188;17.134;2022-08-26T04:03:22;49644.88;;;-134.68
12409;BMP180;6268;48.188;17.134;2022-08-26T04:06:05;49646.84;;;-134.68
12409;BMP180;6268;48.188;17.134;2022-08-26T04:08:36;49646.84;;;-134.68
12409;BMP180;6268;48.188;17.134;2022-08-26T04:11:05;49642.94;;;-134.68
12409;BMP180;6268;48.188;17.134;2022-08-26T04:13:37;49642.94;;;-134.68
12409;BMP180;6268;48.188;17.134;2022-08-26T04:16:06;49646.84;;;-134.68
12409;BMP180;6268;48.188;17.134;2022-08-26T04:18:36;49644.88;;;-134.68
12409;BMP180;6268;48.188;17.134;2022-08-26T04:21:13;49646.84;;;-134.68
12409;BMP180;6268;48.188;17.134;2022-08-26T04:23:42;49648.78;;;-134.68
12409;BMP180;6268;48.188;17.134;2022-08-26T04:26:15;49646.84;;;-134.68
12409;BMP180;6268;48.188;17.134;2022-08-26T04:28:45;49646.84;;;-134.68
12409;BMP180;6268;48.188;17.134;2022-08-26T04:31:16;49644.88;;;-134.68
12409;BMP180;6268;48.188;17.134;2022-08-26T04:33:47;49646.84;;;-134.68
12409;BMP180;6268;48.188;17.134;2022-08-26T04:36:17;49646.84;;;-134.68
12409;BMP180;6268;48.188;17.134;2022-08-26T04:38:46;49644.88;;;-134.68
12409;BMP180;6268;48.188;17.134;2022-08-26T04:41:18;49644.88;;;-134.68
12409;BMP180;6268;48.188;17.134;2022-08-26T04:43:49;49644.88;;;-134.68
12409;BMP180;6268;48.188;17.134;2022-08-26T04:46:21;49646.84;;;-134.68
12409;BMP180;6268;48.188;17.134;2022-08-26T04:48:52;49646.84;;;-134.68
12409;BMP180;6268;48.188;17.134;2022-08-26T04:51:21;49648.78;;;-134.68
12409;BMP180;6268;48.188;17.134;2022-08-26T04:53:55;49646.84;;;-134.68
12409;BMP180;6268;48.188;17.134;2022-08-26T04:56:25;49646.84;;;-134.68
12409;BMP180;6268;48.188;17.134;2022-08-26T04:58:56;49646.84;;;-134.68
12409;BMP180;6268;48.188;17.134;2022-08-26T05:01:26;49648.78;;;-134.68
12409;BMP180;6268;48.188;17.134;2022-08-26T05:03:56;49646.84;;;-134.68
12409;BMP180;6268;48.188;17.134;2022-08-26T05:06:25;49646.84;;;-134.68
12409;BMP180;6268;48.188;17.134;2022-08-26T05:08:54;49646.84;;;-134.68
12409;BMP180;6268;48.188;17.134;2022-08-26T05:11:24;49648.78;;;-134.68
12409;BMP180;6268;48.188;17.134;2022-08-26T05:13:54;49648.78;;;-134.68
12409;BMP180;6268;48.188;17.134;2022-08-26T05:16:28;49646.84;;;-134.68
12409;BMP180;6268;48.188;17.134;2022-08-26T05:18:57;49646.84;;;-134.68
12409;BMP180;6268;48.188;17.134;2022-08-26T05:21:27;49648.78;;;-134.68
12409;BMP180;6268;48.188;17.134;2022-08-26T05:23:56;49648.78;;;-134.68
12409;BMP180;6268;48.188;17.134;2022-08-26T05:26:28;49648.78;;;-134.68
12409;BMP180;6268;48.188;17.134;2022-08-26T05:28:58;49648.78;;;-134.68
12409;BMP180;6268;48.188;17.134;2022-08-26T05:31:30;49646.84;;;-134.68
12409;BMP180;6268;48.188;17.134;2022-08-26T05:34:00;49650.72;;;-134.68
12409;BMP180;6268;48.188;17.134;2022-08-26T05:36:33;49650.72;;;-134.68
12409;BMP180;6268;48.188;17.134;2022-08-26T05:39:05;49650.72;;;-134.68
12409;BMP180;6268;48.188;17.134;2022-08-26T05:41:40;49650.72;;;-134.68
12409;BMP180;6268;48.188;17.134;2022-08-26T05:44:14;49648.78;;;-134.68
12409;BMP180;6268;48.188;17.134;2022-08-26T05:46:45;49646.84;;;-134.68
12409;BMP180;6268;48.188;17.134;2022-08-26T05:49:17;49646.84;;;-134.68
12409;BMP180;6268;48.188;17.134;2022-08-26T05:51:48;49648.78;;;-134.68
12409;BMP180;6268;48.188;17.134;2022-08-26T05:54:17;49648.78;;;-134.68
12409;BMP180;6268;48.188;17.134;2022-08-26T05:56:49;49650.72;;;-134.68
12409;BMP180;6268;48.188;17.134;2022-08-26T05:59:19;49648.78;;;-134.68
12409;BMP180;6268;48.188;17.134;2022-08-26T06:01:51;49650.72;;;-134.68
12409;BMP180;6268;48.188;17.134;2022-08-26T06:04:21;49648.78;;;-134.68
12409;BMP180;6268;48.188;17.134;2022-08-26T06:06:56;49650.72;;;-134.68
12409;BMP180;6268;48.188;17.134;2022-08-26T06:09:25;49650.72;;;-134.68
12409;BMP180;6268;48.188;17.134;2022-08-26T06:11:54;49650.72;;;-134.68
12409;BMP180;6268;48.188;17.134;2022-08-26T06:14:26;49648.78;;;-134.68
12409;BMP180;6268;48.188;17.134;2022-08-26T06:16:55;49648.78;;;-134.68
12409;BMP180;6268;48.188;17.134;2022-08-26T06:19:23;49650.72;;;-134.68
12409;BMP180;6268;48.188;17.134;2022-08-26T06:22:00;49648.78;;;-134.68
12409;BMP180;6268;48.188;17.134;2022-08-26T06:24:50;49650.72;;;-134.68
12409;BMP180;6268;48.188;17.134;2022-08-26T06:27:36;49648.78;;;-134.68
12409;BMP180;6268;48.188;17.134;2022-08-26T06:30:08;49650.72;;;-134.68
12409;BMP180;6268;48.188;17.134;2022-08-26T06:32:37;49650.72;;;-134.68
12409;BMP180;6268;48.188;17.134;2022-08-26T06:35:06;49654.59;;;-134.68
12409;BMP180;6268;48.188;17.134;2022-08-26T06:37:38;49646.84;;;-134.68
12409;BMP180;6268;48.188;17.134;2022-08-26T06:40:10;49652.66;;;-134.68
12409;BMP180;6268;48.188;17.134;2022-08-26T06:42:39;49650.72;;;-134.68
12409;BMP180;6268;48.188;17.134;2022-08-26T06:45:10;49650.72;;;-134.68
12409;BMP180;6268;48.188;17.134;2022-08-26T06:47:39;49650.72;;;-134.68
12409;BMP180;6268;48.188;17.134;2022-08-26T06:50:08;49650.72;;;-134.68
12409;BMP180;6268;48.188;17.134;2022-08-26T06:52:40;49654.59;;;-134.68
12409;BMP180;6268;48.188;17.134;2022-08-26T06:55:09;49652.66;;;-134.68
12409;BMP180;6268;48.188;17.134;2022-08-26T06:57:38;49650.72;;;-134.68
12409;BMP180;6268;48.188;17.134;2022-08-26T07:00:11;49650.72;;;-134.68
12409;BMP180;6268;48.188;17.134;2022-08-26T07:02:40;49652.66;;;-134.68
12409;BMP180;6268;48.188;17.134;2022-08-26T07:05:13;49650.72;;;-134.68
12409;BMP180;6268;48.188;17.134;2022-08-26T07:07:42;49650.72;;;-134.68
12409;BMP180;6268;48.188;17.134;2022-08-26T07:10:10;49652.66;;;-134.68
12409;BMP180;6268;48.188;17.134;2022-08-26T07:12:39;49650.72;;;-134.68
12409;BMP180;6268;48.188;17.134;2022-08-26T07:15:16;49652.66;;;-134.68
12409;BMP180;6268;48.188;17.134;2022-08-26T07:17:50;49650.72;;;-134.68
12409;BMP180;6268;48.188;17.134;2022-08-26T07:20:19;49652.66;;;-134.68
12409;BMP180;6268;48.188;17.134;2022-08-26T07:22:47;49650.72;;;-134.68
12409;BMP180;6268;48.188;17.134;2022-08-26T07:25:16;49648.78;;;-134.68
12409;BMP180;6268;48.188;17.134;2022-08-26T07:27:46;49650.72;;;-134.68
12409;BMP180;6268;48.188;17.134;2022-08-26T07:30:22;49648.78;;;-134.68
12409;BMP180;6268;48.188;17.134;2022-08-26T07:32:55;49646.84;;;-134.68
12409;BMP180;6268;48.188;17.134;2022-08-26T07:35:25;49650.72;;;-134.68
12409;BMP180;6268;48.188;17.134;2022-08-26T07:37:54;49648.78;;;-134.68
12409;BMP180;6268;48.188;17.134;2022-08-26T07:40:23;49650.72;;;-134.68
12409;BMP180;6268;48.188;17.134;2022-08-26T07:42:52;49650.72;;;-134.68
12409;BMP180;6268;48.188;17.134;2022-08-26T07:45:23;49650.72;;;-134.68
12409;BMP180;6268;48.188;17.134;2022-08-26T07:47:52;49646.84;;;-134.68
12409;BMP180;6268;48.188;17.134;2022-08-26T07:50:21;49650.72;;;-134.68
12409;BMP180;6268;48.188;17.134;2022-08-26T07:53:10;49650.72;;;-134.68
12409;BMP180;6268;48.188;17.134;2022-08-26T07:55:40;49652.66;;;-134.68
12409;BMP180;6268;48.188;17.134;2022-08-26T07:58:09;49650.72;;;-134.68
12409;BMP180;6268;48.188;17.134;2022-08-26T08:00:39;49650.72;;;-134.68
12409;BMP180;6268;48.188;17.134;2022-08-26T08:03:09;49648.78;;;-134.68
12409;BMP180;6268;48.188;17.134;2022-08-26T08:05:41;49650.72;;;-134.68
12409;BMP180;6268;48.188;17.134;2022-08-26T08:08:12;49650.72;;;-134.68
12409;BMP180;6268;48.188;17.134;2022-08-26T08:10:55;49648.78;;;-134.68
12409;BMP180;6268;48.188;17.134;2022-08-26T08:13:26;49650.72;;;-134.68
12409;BMP180;6268;48.188;17.134;2022-08-26T08:15:56;49650.72;;;-134.68
12409;BMP180;6268;48.188;17.134;2022-08-26T08:18:25;49646.84;;;-134.68
12409;BMP180;6268;48.188;17.134;2022-08-26T08:20:55;49650.72;;;-134.68
12409;BMP180;6268;48.188;17.134;2022-08-26T08:23:44;49648.78;;;-134.68
12409;BMP180;6268;48.188;17.134;2022-08-26T08:26:13;49648.78;;;-134.68
12409;BMP180;6268;48.188;17.134;2022-08-26T08:28:43;49650.72;;;-134.68
12409;BMP180;6268;48.188;17.134;2022-08-26T08:31:20;49648.78;;;-134.68
12409;BMP180;6268;48.188;17.134;2022-08-26T08:34:09;49648.78;;;-134.68
12409;BMP180;6268;48.188;17.134;2022-08-26T08:36:37;49648.78;;;-134.68
12409;BMP180;6268;48.188;17.134;2022-08-26T08:39:07;49650.72;;;-134.68
12409;BMP180;6268;48.188;17.134;2022-08-26T08:41:50;49650.72;;;-134.68
12409;BMP180;6268;48.188;17.134;2022-08-26T08:44:23;49650.72;;;-134.68
12409;BMP180;6268;48.188;17.134;2022-08-26T08:47:01;49650.72;;;-134.68
12409;BMP180;6268;48.188;17.134;2022-08-26T08:49:33;49646.84;;;-134.68
12409;BMP180;6268;48.188;17.134;2022-08-26T08:52:09;49646.84;;;-134.68
12409;BMP180;6268;48.188;17.134;2022-08-26T08:54:40;49646.84;;;-134.68
12409;BMP180;6268;48.188;17.134;2022-08-26T08:57:16;49648.78;;;-134.68
12409;BMP180;6268;48.188;17.134;2022-08-26T08:59:55;49650.72;;;-134.68
12409;BMP180;6268;48.188;17.134;2022-08-26T09:02:35;49650.72;;;-134.68
12409;BMP180;6268;48.188;17.134;2022-08-26T09:05:15;49646.84;;;-134.68
12409;BMP180;6268;48.188;17.134;2022-08-26T09:07:52;49650.72;;;-134.68
12409;BMP180;6268;48.188;17.134;2022-08-26T09:10:35;49650.72;;;-134.68
12409;BMP180;6268;48.188;17.134;2022-08-26T09:13:07;49648.78;;;-134.68
12409;BMP180;6268;48.188;17.134;2022-08-26T09:15:56;49650.72;;;-134.68
12409;BMP180;6268;48.188;17.134;2022-08-26T09:18:47;49650.72;;;-134.68
12409;BMP180;6268;48.188;17.134;2022-08-26T09:21:22;49646.84;;;-134.68
12409;BMP180;6268;48.188;17.134;2022-08-26T09:23:54;49648.78;;;-134.68
12409;BMP180;6268;48.188;17.134;2022-08-26T09:26:26;49650.72;;;-134.68
12409;BMP180;6268;48.188;17.134;2022-08-26T09:29:01;49646.84;;;-134.68
12409;BMP180;6268;48.188;17.134;2022-08-26T09:31:32;49648.78;;;-134.68
12409;BMP180;6268;48.188;17.134;2022-08-26T09:34:14;49648.78;;;-134.68
12409;BMP180;6268;48.188;17.134;2022-08-26T09:36:47;49648.78;;;-134.68
12409;BMP180;6268;48.188;17.134;2022-08-26T09:39:38;49648.78;;;-134.68
12409;BMP180;6268;48.188;17.134;2022-08-26T09:42:10;49648.78;;;-134.68
12409;BMP180;6268;48.188;17.134;2022-08-26T09:44:55;49648.78;;;-134.68
12409;BMP180;6268;48.188;17.134;2022-08-26T09:47:30;49650.72;;;-134.68
12409;BMP180;6268;48.188;17.134;2022-08-26T09:50:09;49650.72;;;-134.68
12409;BMP180;6268;48.188;17.134;2022-08-26T09:52:40;49648.78;;;-134.68
12409;BMP180;6268;48.188;17.134;2022-08-26T09:55:20;49650.72;;;-134.68
12409;BMP180;6268;48.188;17.134;2022-08-26T09:57:51;49652.66;;;-134.68
12409;BMP180;6268;48.188;17.134;2022-08-26T10:00:31;49646.84;;;-134.68
12409;BMP180;6268;48.188;17.134;2022-08-26T10:03:03;49650.72;;;-134.68
12409;BMP180;6268;48.188;17.134;2022-08-26T10:05:41;49646.84;;;-134.68
12409;BMP180;6268;48.188;17.134;2022-08-26T10:08:25;49646.84;;;-134.68
12409;BMP180;6268;48.188;17.134;2022-08-26T10:10:57;49646.84;;;-134.68
12409;BMP180;6268;48.188;17.134;2022-08-26T10:13:32;49646.84;;;-134.68
12409;BMP180;6268;48.188;17.134;2022-08-26T10:16:16;49646.84;;;-134.68
12409;BMP180;6268;48.188;17.134;2022-08-26T10:18:52;49648.78;;;-134.68
12409;BMP180;6268;48.188;17.134;2022-08-26T10:21:32;49648.78;;;-134.68
12409;BMP180;6268;48.188;17.134;2022-08-26T10:24:05;49648.78;;;-134.68
12409;BMP180;6268;48.188;17.134;2022-08-26T10:26:47;49650.72;;;-134.68
12409;BMP180;6268;48.188;17.134;2022-08-26T10:29:26;49646.84;;;-134.68
12409;BMP180;6268;48.188;17.134;2022-08-26T10:32:04;49646.84;;;-134.68
12409;BMP180;6268;48.188;17.134;2022-08-26T10:34:40;49648.78;;;-134.68
12409;BMP180;6268;48.188;17.134;2022-08-26T10:37:16;49648.78;;;-134.68
12409;BMP180;6268;48.188;17.134;2022-08-26T10:39:54;49646.84;;;-134.68
12409;BMP180;6268;48.188;17.134;2022-08-26T10:42:31;49648.78;;;-134.68
12409;BMP180;6268;48.188;17.134;2022-08-26T10:45:09;49646.84;;;-134.68
12409;BMP180;6268;48.188;17.134;2022-08-26T10:47:47;49648.78;;;-134.68
12409;BMP180;6268;48.188;17.134;2022-08-26T10:50:19;49646.84;;;-134.68
12409;BMP180;6268;48.188;17.134;2022-08-26T10:52:59;49646.84;;;-134.68
12409;BMP180;6268;48.188;17.134;2022-08-26T10:55:37;49644.88;;;-134.68
12409;BMP180;6268;48.188;17.134;2022-08-26T10:58:27;49646.84;;;-134.68
12409;BMP180;6268;48.188;17.134;2022-08-26T11:01:06;49646.84;;;-134.68
12409;BMP180;6268;48.188;17.134;2022-08-26T11:04:02;49648.78;;;-134.68
12409;BMP180;6268;48.188;17.134;2022-08-26T11:06:32;49644.88;;;-134.68
12409;BMP180;6268;48.188;17.134;2022-08-26T11:09:07;49646.84;;;-134.68
12409;BMP180;6268;48.188;17.134;2022-08-26T11:11:57;49646.84;;;-134.68
12409;BMP180;6268;48.188;17.134;2022-08-26T11:14:37;49648.78;;;-134.68
12409;BMP180;6268;48.188;17.134;2022-08-26T11:17:57;49650.72;;;-134.68
12409;BMP180;6268;48.188;17.134;2022-08-26T11:20:36;49648.78;;;-134.68
12409;BMP180;6268;48.188;17.134;2022-08-26T11:23:44;49648.78;;;-134.68
12409;BMP180;6268;48.188;17.134;2022-08-26T11:26:18;49646.84;;;-134.68
12409;BMP180;6268;48.188;17.134;2022-08-26T11:29:03;49648.78;;;-134.68
12409;BMP180;6268;48.188;17.134;2022-08-26T11:31:54;49646.84;;;-134.68
12409;BMP180;6268;48.188;17.134;2022-08-26T11:34:53;49644.88;;;-134.68
12409;BMP180;6268;48.188;17.134;2022-08-26T11:37:30;49648.78;;;-134.68
12409;BMP180;6268;48.188;17.134;2022-08-26T11:40:06;49646.84;;;-134.68
12409;BMP180;6268;48.188;17.134;2022-08-26T11:42:42;49646.84;;;-134.68
12409;BMP180;6268;48.188;17.134;2022-08-26T11:45:21;49650.72;;;-134.68
12409;BMP180;6268;48.188;17.134;2022-08-26T11:47:52;49646.84;;;-134.68
12409;BMP180;6268;48.188;17.134;2022-08-26T11:50:24;49646.84;;;-134.68
12409;BMP180;6268;48.188;17.134;2022-08-26T11:52:57;49646.84;;;-134.68
12409;BMP180;6268;48.188;17.134;2022-08-26T11:55:30;49646.84;;;-134.68
12409;BMP180;6268;48.188;17.134;2022-08-26T11:58:03;49646.84;;;-134.68
12409;BMP180;6268;48.188;17.134;2022-08-26T12:00:49;49646.84;;;-134.68
12409;BMP180;6268;48.188;17.134;2022-08-26T12:03:24;49646.84;;;-134.68
12409;BMP180;6268;48.188;17.134;2022-08-26T12:05:53;49648.78;;;-134.68
12409;BMP180;6268;48.188;17.134;2022-08-26T12:08:27;49648.78;;;-134.68
12409;BMP180;6268;48.188;17.134;2022-08-26T12:11:06;49648.78;;;-134.68
12409;BMP180;6268;48.188;17.134;2022-08-26T12:13:37;49648.78;;;-134.68
12409;BMP180;6268;48.188;17.134;2022-08-26T12:16:06;49648.78;;;-134.68
12409;BMP180;6268;48.188;17.134;2022-08-26T12:18:37;49646.84;;;-134.68
12409;BMP180;6268;48.188;17.134;2022-08-26T12:21:18;49646.84;;;-134.68
12409;BMP180;6268;48.188;17.134;2022-08-26T12:23:53;49644.88;;;-134.68
12409;BMP180;6268;48.188;17.134;2022-08-26T12:26:26;49648.78;;;-134.68
12409;BMP180;6268;48.188;17.134;2022-08-26T12:29:01;49646.84;;;-134.68
12409;BMP180;6268;48.188;17.134;2022-08-26T12:31:44;49646.84;;;-134.68
12409;BMP180;6268;48.188;17.134;2022-08-26T12:34:15;49644.88;;;-134.68
12409;BMP180;6268;48.188;17.134;2022-08-26T12:36:48;49644.88;;;-134.68
12409;BMP180;6268;48.188;17.134;2022-08-26T12:39:26;49644.88;;;-134.68
12409;BMP180;6268;48.188;17.134;2022-08-26T12:41:57;49644.88;;;-134.68
12409;BMP180;6268;48.188;17.134;2022-08-26T12:44:43;49650.72;;;-134.68
12409;BMP180;6268;48.188;17.134;2022-08-26T12:47:26;49646.84;;;-134.68
12409;BMP180;6268;48.188;17.134;2022-08-26T12:50:16;49648.78;;;-134.68
12409;BMP180;6268;48.188;17.134;2022-08-26T12:52:57;49646.84;;;-134.68
12409;BMP180;6268;48.188;17.134;2022-08-26T12:55:37;49646.84;;;-134.68
12409;BMP180;6268;48.188;17.134;2022-08-26T12:58:24;49646.84;;;-134.68
12409;BMP180;6268;48.188;17.134;2022-08-26T13:00:57;49646.84;;;-134.68
12409;BMP180;6268;48.188;17.134;2022-08-26T13:03:40;49646.84;;;-134.68
12409;BMP180;6268;48.188;17.134;2022-08-26T13:06:27;49646.84;;;-134.68
12409;BMP180;6268;48.188;17.134;2022-08-26T13:08:59;49648.78;;;-134.68
12409;BMP180;6268;48.188;17.134;2022-08-26T13:11:31;49644.88;;;-134.68
12409;BMP180;6268;48.188;17.134;2022-08-26T13:14:04;49646.84;;;-134.68
12409;BMP180;6268;48.188;17.134;2022-08-26T13:16:37;49648.78;;;-134.68
12409;BMP180;6268;48.188;17.134;2022-08-26T13:19:09;49648.78;;;-134.68
12409;BMP180;6268;48.188;17.134;2022-08-26T13:21:43;49646.84;;;-134.68
12409;BMP180;6268;48.188;17.134;2022-08-26T13:24:17;49646.84;;;-134.68
12409;BMP180;6268;48.188;17.134;2022-08-26T13:26:48;49644.88;;;-134.68
12409;BMP180;6268;48.188;17.134;2022-08-26T13:29:18;49644.88;;;-134.68
12409;BMP180;6268;48.188;17.134;2022-08-26T13:31:48;49644.88;;;-134.68
12409;BMP180;6268;48.188;17.134;2022-08-26T13:34:21;49644.88;;;-134.68
12409;BMP180;6268;48.188;17.134;2022-08-26T13:36:52;49644.88;;;-134.68
12409;BMP180;6268;48.188;17.134;2022-08-26T13:39:22;49646.84;;;-134.68
12409;BMP180;6268;48.188;17.134;2022-08-26T13:41:52;49644.88;;;-134.68
12409;BMP180;6268;48.188;17.134;2022-08-26T13:44:21;49644.88;;;-134.68
12409;BMP180;6268;48.188;17.134;2022-08-26T13:46:51;49646.84;;;-134.68
12409;BMP180;6268;48.188;17.134;2022-08-26T13:49:20;49646.84;;;-134.68
12409;BMP180;6268;48.188;17.134;2022-08-26T13:51:48;49642.94;;;-134.68
12409;BMP180;6268;48.188;17.134;2022-08-26T13:54:17;49646.84;;;-134.68
12409;BMP180;6268;48.188;17.134;2022-08-26T13:56:46;49646.84;;;-134.68
12409;BMP180;6268;48.188;17.134;2022-08-26T13:59:14;49646.84;;;-134.68
12409;BMP180;6268;48.188;17.134;2022-08-26T14:01:43;49644.88;;;-134.68
12409;BMP180;6268;48.188;17.134;2022-08-26T14:04:13;49646.84;;;-134.68
12409;BMP180;6268;48.188;17.134;2022-08-26T14:06:49;49641.00;;;-134.68
12409;BMP180;6268;48.188;17.134;2022-08-26T14:09:18;49646.84;;;-134.68
12409;BMP180;6268;48.188;17.134;2022-08-26T14:11:47;49644.88;;;-134.68
12409;BMP180;6268;48.188;17.134;2022-08-26T14:14:21;49646.84;;;-134.68
12409;BMP180;6268;48.188;17.134;2022-08-26T14:16:49;49644.88;;;-134.68
12409;BMP180;6268;48.188;17.134;2022-08-26T14:19:28;49646.84;;;-134.68
12409;BMP180;6268;48.188;17.134;2022-08-26T14:21:58;49644.88;;;-134.68